Notice: Undefined index: language in /home/u901418234/domains/wayaircargo.com/public_html/vam/index.php on line 25

 WAY Cargo

Way Air Cargo The way to connect the world




 METAR AND TAF INFORMATION

Deprecated: The each() function is deprecated. This message will be suppressed on further calls in /home/u901418234/domains/wayaircargo.com/public_html/vam/helpers/get_metar.php on line 20
METAR FOR OTHH
ADDS - METARS form results

(1355 UTC 21 November 2019)
Data provider http://aviationweather.gov/metar/data/
 
METAR text: OTHH 211300Z 34016KT 9999 FEW040 23/04 Q1016 NOSIG
Conditions at: OTHH (DOHA HAMAD INTL , QA) observed 1300 UTC 21 November 2019
Temperature: 23.0°C (73°F)
Dewpoint: 4.0°C (39°F) [RH = 29%]
Pressure (altimeter): 30.00 inches Hg (1016.0 mb)
Winds: from the NNW (340 degrees) at 18 MPH (16 knots; 8.2 m/s)
Visibility: 6 or more miles (10+ km)
Ceiling: at least 12,000 feet AGL
Clouds: few clouds at 4000 feet AGL
Weather: no significant weather observed at this time

Forecast for: OTHH (DOHA HAMAD INTL , QA)
Text: TAF OTHH 211102Z 2112/2218 31012KT 9000 NSC
Forecast period: 1200 UTC 21 November 2019 to 1800 UTC 22 November 2019
Forecast type: FROM: standard forecast or significant change
Winds: from the NW (310 degrees) at 14 MPH (12 knots; 6.2 m/s)
Visibility: 6 miles (9 km)
Ceiling: unknown
Clouds: missing
Weather: no significant weather forecast for this period

 AIRPORT MAP

 RUNWAY INFORMATION

 AIRPORT FREQUENCIES

 AIRPORT NEAR NAVIGATION AIDS